Time;durP1;ratioP1;P1;durP2;ratioP2;P2;SDS_P1;SDS_P2;PMS_P1;PMS_P2;Temp;Humidity;BMP_temperature;BMP_pressure;BME280_temperature;BME280_humidity;BME280_pressure;Samples;Min_cycle;Max_cycle;Signal;HPM_P1;HPM_P2
2023/09/13 00:01:34;;;;;;;2.72;2.05;;;22.00;64.30;;;;;;4979099;28;20494;-60
2023/09/13 00:04:01;;;;;;;2.85;2.10;;;22.10;64.40;;;;;;4978495;28;20054;-61
2023/09/13 00:06:29;;;;;;;3.03;2.10;;;22.00;64.40;;;;;;4977937;28;20616;-60
2023/09/13 00:08:56;;;;;;;4.30;2.10;;;22.10;64.40;;;;;;4980427;28;20065;-62
2023/09/13 00:11:24;;;;;;;2.75;1.80;;;22.10;64.20;;;;;;4976879;28;20068;-60
2023/09/13 00:13:51;;;;;;;5.05;2.30;;;22.00;64.20;;;;;;4979099;28;20396;-62
2023/09/13 00:16:19;;;;;;;3.67;2.33;;;22.00;64.30;;;;;;4977831;28;20406;-63
2023/09/13 00:18:46;;;;;;;7.25;1.95;;;22.00;64.20;;;;;;4977785;28;20058;-62
2023/09/13 00:21:14;;;;;;;9.25;2.42;;;22.00;64.30;;;;;;4980027;28;20054;-61
2023/09/13 00:23:41;;;;;;;3.13;2.10;;;22.00;64.50;;;;;;4979878;28;20050;-61
2023/09/13 00:26:08;;;;;;;3.22;2.00;;;21.90;64.50;;;;;;4978245;28;20059;-63
2023/09/13 00:28:37;;;;;;;5.22;2.67;;;21.90;64.60;;;;;;4977927;28;20053;-64
2023/09/13 00:31:04;;;;;;;3.92;2.50;;;21.90;64.50;;;;;;4979470;28;20054;-64
2023/09/13 00:33:32;;;;;;;4.53;2.88;;;21.90;64.60;;;;;;4978802;28;20541;-65
2023/09/13 00:35:59;;;;;;;7.13;3.33;;;21.90;64.60;;;;;;4977386;28;20058;-62
2023/09/13 00:38:26;;;;;;;6.45;3.35;;;21.90;64.60;;;;;;4976981;28;20054;-63
2023/09/13 00:40:54;;;;;;;4.32;3.03;;;21.90;64.60;;;;;;4980143;28;20395;-64
2023/09/13 00:43:21;;;;;;;5.60;3.10;;;21.90;64.70;;;;;;4977432;28;20046;-62
2023/09/13 00:45:51;;;;;;;6.70;3.10;;;21.90;64.90;;;;;;4978678;28;20054;-64
2023/09/13 00:48:18;;;;;;;8.45;3.00;;;21.90;65.10;;;;;;4980361;28;20061;-64
2023/09/13 00:50:47;;;;;;;5.20;3.45;;;21.90;65.20;;;;;;4979437;28;20062;-63
2023/09/13 00:53:15;;;;;;;8.32;4.82;;;21.80;65.20;;;;;;4976891;28;20061;-61
2023/09/13 00:55:43;;;;;;;7.82;5.32;;;21.90;65.20;;;;;;4978972;28;20058;-63
2023/09/13 00:58:11;;;;;;;8.40;5.93;;;21.90;65.20;;;;;;4979191;28;20062;-63
2023/09/13 01:00:38;;;;;;;7.40;5.68;;;21.90;65.20;;;;;;4979278;28;20058;-62
2023/09/13 01:03:07;;;;;;;9.32;7.20;;;21.90;65.30;;;;;;4978213;28;20054;-65
2023/09/13 01:05:36;;;;;;;13.23;8.55;;;21.90;65.40;;;;;;4975800;28;20097;-64
2023/09/13 01:11:10;;;;;;;11.88;7.35;;;21.90;65.50;;;;;;4910238;29;20063;-64
2023/09/13 01:13:38;;;;;;;10.60;8.13;;;21.90;65.40;;;;;;4912738;28;20056;-60
2023/09/13 01:16:14;;;;;;;11.43;8.15;;;21.90;65.40;;;;;;4977859;28;20058;-63
2023/09/13 01:18:49;;;;;;;16.23;8.55;;;21.90;65.40;;;;;;4978941;28;20057;-62
2023/09/13 01:21:34;;;;;;;12.20;8.30;;;22.00;65.50;;;;;;4974171;28;20061;-60
2023/09/13 01:24:16;;;;;;;10.60;7.70;;;22.00;65.60;;;;;;4980463;28;20054;-62
2023/09/13 01:27:28;;;;;;;11.07;8.25;;;22.00;65.50;;;;;;4979520;28;20050;-60
2023/09/13 01:30:00;;;;;;;13.60;9.82;;;22.00;65.50;;;;;;4943635;28;20421;-63
2023/09/13 01:32:28;;;;;;;13.30;9.00;;;22.00;65.30;;;;;;4979757;28;20046;-62
2023/09/13 01:34:55;;;;;;;14.15;9.60;;;22.00;65.30;;;;;;4977245;28;20062;-61
2023/09/13 01:37:23;;;;;;;11.93;8.40;;;22.00;65.30;;;;;;4977725;28;20058;-62
2023/09/13 01:39:50;;;;;;;12.52;8.23;;;22.00;65.30;;;;;;4980610;28;20642;-59
2023/09/13 01:42:18;;;;;;;11.68;8.88;;;22.00;65.30;;;;;;4978483;28;20066;-62
2023/09/13 01:44:46;;;;;;;11.05;8.18;;;22.00;65.30;;;;;;4979507;28;20057;-62
2023/09/13 01:47:17;;;;;;;12.65;7.80;;;22.00;65.30;;;;;;4978428;28;20414;-61
2023/09/13 01:49:46;;;;;;;11.07;7.65;;;22.00;65.30;;;;;;4979400;28;20054;-60
2023/09/13 01:52:13;;;;;;;13.13;8.27;;;22.00;65.30;;;;;;4978156;28;20518;-63
2023/09/13 01:54:41;;;;;;;10.60;7.20;;;22.00;65.20;;;;;;4981624;28;20380;-54
2023/09/13 01:57:08;;;;;;;11.93;7.70;;;22.00;65.20;;;;;;4982665;28;20055;-54
2023/09/13 01:59:37;;;;;;;11.80;6.57;;;22.00;65.20;;;;;;4980037;28;20055;-54
2023/09/13 02:02:04;;;;;;;11.43;6.95;;;22.00;65.20;;;;;;4982520;28;20061;-51
2023/09/13 02:04:33;;;;;;;11.45;6.72;;;22.00;65.20;;;;;;4983143;28;20050;-57
2023/09/13 02:07:01;;;;;;;9.20;6.43;;;22.00;65.10;;;;;;4980229;28;20055;-52
2023/09/13 02:09:28;;;;;;;9.48;6.93;;;22.00;65.10;;;;;;4981137;28;20395;-53
2023/09/13 02:11:56;;;;;;;12.05;6.95;;;22.00;65.10;;;;;;4982752;28;20058;-56
2023/09/13 02:14:23;;;;;;;10.05;6.97;;;22.00;65.00;;;;;;4981309;28;20528;-56
2023/09/13 02:16:50;;;;;;;9.77;7.30;;;22.00;65.00;;;;;;4980127;28;20054;-54
2023/09/13 02:19:18;;;;;;;9.98;6.63;;;22.00;64.90;;;;;;4981298;28;20407;-53
2023/09/13 02:21:47;;;;;;;9.40;7.10;;;21.90;64.90;;;;;;4980336;28;20050;-52
2023/09/13 02:24:14;;;;;;;11.35;7.95;;;21.90;65.00;;;;;;4983023;28;20058;-51
2023/09/13 02:26:41;;;;;;;10.75;8.00;;;21.90;65.00;;;;;;4980244;28;20058;-56
2023/09/13 02:29:08;;;;;;;9.63;7.03;;;22.00;65.10;;;;;;4979847;28;20062;-56
2023/09/13 02:31:36;;;;;;;9.32;7.40;;;22.00;65.10;;;;;;4980267;28;20057;-54
2023/09/13 02:34:03;;;;;;;11.30;7.32;;;21.90;65.10;;;;;;4981150;28;20089;-55
2023/09/13 02:36:31;;;;;;;14.02;7.38;;;21.90;65.10;;;;;;4978014;28;20042;-53
2023/09/13 02:39:00;;;;;;;12.30;7.65;;;21.90;65.20;;;;;;4981164;28;20054;-50
2023/09/13 02:41:27;;;;;;;13.20;8.10;;;21.90;65.20;;;;;;4981234;28;20054;-54
2023/09/13 02:43:54;;;;;;;13.98;8.73;;;21.90;65.20;;;;;;4980243;28;20058;-55
2023/09/13 02:46:22;;;;;;;15.30;9.60;;;22.00;65.30;;;;;;4979766;28;20057;-55
2023/09/13 02:48:49;;;;;;;13.13;9.35;;;22.00;65.30;;;;;;4981122;28;20510;-52
2023/09/13 02:51:16;;;;;;;12.82;9.02;;;22.00;66.00;;;;;;4982760;28;20054;-56
2023/09/13 02:53:43;;;;;;;15.85;10.27;;;21.90;65.30;;;;;;4981829;28;20054;-57
2023/09/13 02:56:12;;;;;;;14.95;10.02;;;22.00;65.20;;;;;;4980869;28;20050;-56
2023/09/13 02:58:39;;;;;;;14.63;9.77;;;22.00;65.20;;;;;;4979236;28;20050;-50
2023/09/13 03:01:10;;;;;;;13.50;9.38;;;22.00;65.20;;;;;;4979655;28;20486;-53
2023/09/13 03:03:37;;;;;;;11.70;8.75;;;22.00;65.30;;;;;;4979474;28;20050;-53
2023/09/13 03:06:11;;;;;;;13.80;10.60;;;22.00;65.30;;;;;;4979716;28;20410;-63
2023/09/13 03:08:38;;;;;;;;;;;22.00;65.40;;;;;;4981115;28;20046;-62
2023/09/13 03:11:14;;;;;;;15.40;9.30;;;22.10;65.20;;;;;;4982236;28;19929;-61
2023/09/13 03:13:41;;;;;;;14.25;8.55;;;22.00;65.00;;;;;;4977000;28;20574;-60
2023/09/13 03:16:13;;;;;;;13.02;9.77;;;22.00;65.00;;;;;;4976547;28;20046;-62
2023/09/13 03:18:40;;;;;;;13.18;8.98;;;22.00;65.20;;;;;;4979726;28;20432;-63
2023/09/13 03:21:09;;;;;;;12.40;8.90;;;22.00;65.20;;;;;;4978516;28;20058;-63
2023/09/13 03:23:38;;;;;;;13.13;9.82;;;22.00;65.30;;;;;;4976063;28;20073;-61
2023/09/13 03:26:13;;;;;;;13.25;10.02;;;22.00;65.30;;;;;;4978725;28;20055;-63
2023/09/13 03:28:42;;;;;;;16.50;10.88;;;22.00;65.30;;;;;;4980272;28;20096;-63
2023/09/13 03:31:10;;;;;;;15.80;10.48;;;22.10;65.30;;;;;;4980678;28;20057;-62
2023/09/13 03:33:39;;;;;;;16.90;11.07;;;22.00;65.30;;;;;;4983762;28;20058;-62
2023/09/13 03:36:07;;;;;;;16.27;10.63;;;22.00;65.90;;;;;;4981141;28;20046;-55
2023/09/13 03:38:34;;;;;;;13.32;10.07;;;22.10;65.20;;;;;;4980747;28;20054;-63
2023/09/13 03:41:03;;;;;;;13.02;9.02;;;22.00;65.20;;;;;;4981517;28;20506;-56
2023/09/13 03:43:31;;;;;;;17.98;12.73;;;22.10;65.30;;;;;;4982196;28;20513;-62
2023/09/13 03:45:59;;;;;;;14.80;10.93;;;22.10;65.30;;;;;;4977895;28;20423;-62
2023/09/13 03:48:48;;;;;;;17.20;12.35;;;22.10;65.30;;;;;;4980143;28;20054;-63
2023/09/13 03:51:15;;;;;;;18.10;12.75;;;22.10;65.00;;;;;;4976870;28;20058;-63
2023/09/13 03:53:43;;;;;;;18.75;11.43;;;22.10;65.00;;;;;;4977472;28;20054;-62
2023/09/13 03:56:11;;;;;;;20.35;15.15;;;22.10;64.90;;;;;;4980548;28;20057;-61
2023/09/13 03:58:40;;;;;;;19.75;13.85;;;22.00;64.90;;;;;;4979250;28;20057;-62
2023/09/13 04:01:07;;;;;;;18.98;13.57;;;22.00;64.90;;;;;;4978240;28;20333;-64
2023/09/13 04:03:35;;;;;;;16.15;12.35;;;22.00;65.00;;;;;;4980587;28;20073;-63
2023/09/13 04:06:02;;;;;;;16.67;12.15;;;22.00;65.10;;;;;;4978262;28;20490;-64
2023/09/13 04:08:29;;;;;;;22.55;13.32;;;22.00;65.20;;;;;;4979725;28;20487;-63
2023/09/13 04:10:56;;;;;;;16.30;12.10;;;22.00;65.30;;;;;;4979057;28;20058;-57
2023/09/13 04:13:24;;;;;;;17.30;13.18;;;22.00;65.30;;;;;;4973136;28;20050;-60
2023/09/13 04:15:52;;;;;;;22.95;15.35;;;22.00;65.30;;;;;;4975255;28;20051;-53
2023/09/13 04:18:20;;;;;;;21.48;14.38;;;22.00;65.20;;;;;;4979198;28;20054;-52
2023/09/13 04:20:47;;;;;;;22.55;14.70;;;22.00;65.20;;;;;;4978059;28;20054;-54
2023/09/13 04:23:15;;;;;;;23.60;14.57;;;22.00;65.10;;;;;;4977882;28;20330;-47
2023/09/13 04:25:42;;;;;;;20.63;12.88;;;22.00;65.10;;;;;;4977274;28;20053;-57
2023/09/13 04:28:10;;;;;;;19.80;12.30;;;22.00;65.10;;;;;;4979973;28;20051;-56
2023/09/13 04:30:37;;;;;;;18.08;12.75;;;22.00;65.20;;;;;;4979976;28;20080;-53
2023/09/13 04:33:07;;;;;;;21.45;14.70;;;22.00;65.20;;;;;;4979966;28;20046;-57
2023/09/13 04:35:35;;;;;;;23.33;14.57;;;22.00;65.20;;;;;;4976687;28;20054;-56
2023/09/13 04:38:02;;;;;;;24.60;16.38;;;22.00;65.10;;;;;;4978354;28;20053;-54
2023/09/13 04:40:29;;;;;;;23.83;16.05;;;22.00;65.10;;;;;;4979882;28;20418;-53
2023/09/13 04:43:23;;;;;;;22.08;15.60;;;22.00;65.10;;;;;;4979339;28;20426;-52
2023/09/13 04:45:51;;;;;;;41.80;26.25;;;22.00;65.30;;;;;;4978549;28;20055;-53
2023/09/13 04:48:20;;;;;;;36.85;22.63;;;22.00;65.90;;;;;;4980018;28;20582;-51
2023/09/13 04:50:47;;;;;;;24.90;16.75;;;22.00;65.10;;;;;;4976907;28;20507;-55
2023/09/13 04:53:14;;;;;;;30.83;20.17;;;22.00;65.10;;;;;;4977707;28;20050;-53
2023/09/13 04:55:45;;;;;;;28.98;17.98;;;22.00;65.20;;;;;;4978299;28;20057;-58
2023/09/13 04:58:12;;;;;;;26.73;16.80;;;22.00;65.20;;;;;;4978516;28;20050;-51
2023/09/13 05:00:40;;;;;;;31.00;20.13;;;22.00;65.20;;;;;;4978129;28;20061;-52
2023/09/13 05:03:07;;;;;;;33.65;18.48;;;22.00;65.30;;;;;;4978522;28;20062;-52
2023/09/13 05:05:35;;;;;;;28.83;20.23;;;22.00;65.40;;;;;;4976300;28;20058;-52
2023/09/13 05:08:03;;;;;;;27.85;19.55;;;22.00;65.40;;;;;;4979363;28;20486;-50
2023/09/13 05:10:31;;;;;;;35.10;21.85;;;22.00;65.40;;;;;;4979319;28;20482;-59
2023/09/13 05:12:59;;;;;;;37.20;23.90;;;22.00;65.40;;;;;;4978164;28;21161;-53
2023/09/13 05:15:26;;;;;;;45.70;27.73;;;22.00;65.40;;;;;;4980392;28;20058;-45
2023/09/13 05:17:54;;;;;;;43.38;27.05;;;22.00;65.40;;;;;;4978774;28;20513;-48
2023/09/13 05:20:21;;;;;;;38.60;25.55;;;21.90;65.40;;;;;;4978941;28;20399;-54
2023/09/13 05:22:50;;;;;;;39.63;26.35;;;21.90;65.60;;;;;;4979685;28;20056;-49
2023/09/13 05:25:17;;;;;;;40.65;26.20;;;21.90;65.70;;;;;;4978299;28;20058;-61
2023/09/13 05:27:44;;;;;;;43.75;27.02;;;21.90;65.80;;;;;;4981194;28;20054;-63
2023/09/13 05:30:12;;;;;;;41.42;27.25;;;21.90;65.80;;;;;;4981067;28;20384;-63
2023/09/13 05:32:39;;;;;;;41.17;26.38;;;21.90;65.90;;;;;;4975204;28;21281;-63
2023/09/13 05:35:07;;;;;;;43.40;29.45;;;21.90;66.00;;;;;;4982659;28;20054;-63
2023/09/13 05:37:35;;;;;;;40.28;27.33;;;21.90;66.00;;;;;;4979884;28;20050;-62
2023/09/13 05:40:06;;;;;;;48.42;29.98;;;21.90;66.00;;;;;;4984226;28;20054;-61
2023/09/13 05:42:34;;;;;;;50.75;32.40;;;21.90;66.10;;;;;;4980919;28;20065;-59
2023/09/13 05:45:01;;;;;;;51.92;31.63;;;21.90;65.90;;;;;;4982279;28;20062;-61
2023/09/13 05:47:29;;;;;;;49.88;31.00;;;21.80;65.90;;;;;;4981667;28;20061;-60
2023/09/13 05:49:56;;;;;;;46.50;30.33;;;21.80;65.80;;;;;;4980756;28;20438;-54
2023/09/13 05:52:24;;;;;;;41.47;26.90;;;21.80;65.90;;;;;;4982152;28;20046;-62
2023/09/13 05:54:51;;;;;;;50.33;31.58;;;21.80;66.00;;;;;;4982334;28;20065;-61
2023/09/13 05:57:19;;;;;;;49.38;31.90;;;21.70;65.90;;;;;;4982253;28;20050;-57
2023/09/13 05:59:47;;;;;;;48.08;30.48;;;21.70;65.90;;;;;;4980962;28;20606;-48
2023/09/13 06:02:14;;;;;;;50.33;30.58;;;21.70;66.00;;;;;;4977556;28;20069;-63
2023/09/13 06:04:41;;;;;;;49.97;31.45;;;21.70;66.00;;;;;;4980920;28;20064;-66
2023/09/13 06:07:14;;;;;;;48.05;29.70;;;21.60;66.00;;;;;;4977627;28;20061;-61
2023/09/13 06:09:41;;;;;;;49.95;30.88;;;21.60;66.00;;;;;;4984598;28;20054;-62
2023/09/13 06:12:09;;;;;;;43.58;28.23;;;21.60;66.20;;;;;;4982830;28;20058;-60
2023/09/13 06:14:38;;;;;;;50.33;28.48;;;21.60;66.40;;;;;;4983027;28;20097;-62
2023/09/13 06:17:05;;;;;;;44.70;27.25;;;21.50;66.50;;;;;;4980207;28;20043;-60
2023/09/13 06:19:32;;;;;;;44.67;27.42;;;21.50;66.50;;;;;;4979885;28;20051;-62
2023/09/13 06:22:00;;;;;;;40.03;24.63;;;21.50;66.30;;;;;;4982574;28;20055;-62
2023/09/13 06:24:27;;;;;;;39.67;25.20;;;21.50;66.50;;;;;;4983405;28;20058;-61
2023/09/13 06:26:55;;;;;;;44.88;26.83;;;21.50;66.40;;;;;;4984096;28;20054;-67
2023/09/13 06:29:23;;;;;;;40.13;24.98;;;21.40;66.30;;;;;;4984580;28;20062;-62
2023/09/13 06:31:54;;;;;;;33.40;22.50;;;21.40;66.40;;;;;;4984080;28;20387;-61
2023/09/13 06:34:21;;;;;;;39.70;24.65;;;21.30;66.40;;;;;;4984294;28;20510;-65
2023/09/13 06:36:49;;;;;;;31.25;21.98;;;21.30;66.30;;;;;;4983497;28;20057;-64
2023/09/13 06:39:16;;;;;;;37.90;24.85;;;21.30;66.30;;;;;;4983436;28;20573;-62
2023/09/13 06:41:43;;;;;;;38.25;20.35;;;21.30;66.60;;;;;;4979901;28;20062;-63
2023/09/13 06:44:11;;;;;;;33.55;21.45;;;21.30;65.90;;;;;;4979884;28;20069;-59
2023/09/13 06:46:38;;;;;;;30.38;19.42;;;21.30;66.00;;;;;;4978572;28;20066;-55
2023/09/13 06:49:09;;;;;;;30.98;20.52;;;21.30;66.10;;;;;;4983431;28;20418;-54
2023/09/13 06:51:36;;;;;;;32.08;21.10;;;21.30;66.20;;;;;;4983440;28;20054;-58
2023/09/13 06:54:04;;;;;;;33.25;21.17;;;21.30;66.40;;;;;;4981233;28;20062;-58
2023/09/13 06:56:31;;;;;;;29.70;20.15;;;21.30;66.60;;;;;;4984036;28;20161;-64
2023/09/13 06:58:59;;;;;;;29.33;20.17;;;21.30;66.70;;;;;;4981366;28;20513;-67
2023/09/13 07:01:26;;;;;;;30.17;20.83;;;21.40;67.60;;;;;;4981396;28;20058;-63
2023/09/13 07:03:53;;;;;;;28.40;19.60;;;21.40;66.70;;;;;;4984425;28;20053;-63
2023/09/13 07:06:22;;;;;;;31.08;21.10;;;21.40;66.60;;;;;;4981024;28;20065;-52
2023/09/13 07:08:49;;;;;;;33.38;22.20;;;21.40;66.50;;;;;;4979115;28;20054;-59
2023/09/13 07:11:17;;;;;;;26.38;19.60;;;21.40;65.80;;;;;;4980013;28;20077;-57
2023/09/13 07:13:44;;;;;;;28.98;20.35;;;21.50;65.80;;;;;;4979429;28;20054;-65
2023/09/13 07:16:11;;;;;;;28.33;19.00;;;21.50;65.80;;;;;;4977927;28;20061;-62
2023/09/13 07:18:39;;;;;;;28.17;18.80;;;21.50;65.90;;;;;;4978306;28;20054;-65
2023/09/13 07:21:06;;;;;;;33.38;20.08;;;21.50;65.80;;;;;;4976116;28;20081;-65
2023/09/13 07:23:34;;;;;;;27.52;18.58;;;21.50;65.50;;;;;;4976350;28;20054;-61
2023/09/13 07:26:02;;;;;;;29.15;18.35;;;21.50;65.20;;;;;;4982717;28;20065;-60
2023/09/13 07:28:30;;;;;;;22.40;15.75;;;21.50;64.40;;;;;;4979810;28;20053;-53
2023/09/13 07:30:57;;;;;;;22.85;16.05;;;21.50;64.60;;;;;;4983143;28;20054;-61
2023/09/13 07:33:24;;;;;;;24.30;16.15;;;21.50;64.50;;;;;;4981732;28;20058;-62
2023/09/13 07:35:51;;;;;;;24.95;17.17;;;21.50;64.40;;;;;;4981758;28;20130;-63
2023/09/13 07:38:19;;;;;;;25.30;16.20;;;21.50;64.40;;;;;;4981612;28;20047;-54
2023/09/13 07:40:47;;;;;;;22.27;16.45;;;21.50;64.20;;;;;;4981350;28;20491;-62
2023/09/13 07:43:16;;;;;;;22.52;15.38;;;21.50;64.00;;;;;;4980673;28;20497;-61
2023/09/13 07:45:43;;;;;;;23.45;16.90;;;21.50;64.10;;;;;;4982576;28;20058;-63
2023/09/13 07:48:10;;;;;;;26.92;17.90;;;21.50;64.40;;;;;;4977303;28;20057;-63
2023/09/13 07:50:40;;;;;;;22.48;16.52;;;21.50;64.30;;;;;;4980692;28;20061;-59
2023/09/13 07:53:08;;;;;;;24.35;17.70;;;21.50;64.20;;;;;;4981671;28;20457;-62
2023/09/13 07:55:35;;;;;;;22.63;16.25;;;21.50;64.20;;;;;;4982283;28;20068;-61
2023/09/13 07:58:05;;;;;;;22.58;16.60;;;21.50;64.20;;;;;;4982571;28;20057;-63
2023/09/13 08:00:33;;;;;;;23.73;16.30;;;21.50;64.40;;;;;;4981717;28;20058;-62
2023/09/13 08:03:00;;;;;;;20.73;15.68;;;21.50;64.50;;;;;;4978335;28;20058;-61
2023/09/13 08:05:28;;;;;;;22.70;17.30;;;21.50;64.70;;;;;;4976278;28;20058;-58
2023/09/13 08:07:56;;;;;;;33.15;19.27;;;21.50;64.70;;;;;;4978615;28;20065;-61
2023/09/13 08:10:24;;;;;;;25.90;17.70;;;21.50;64.50;;;;;;4980941;28;20058;-66
2023/09/13 08:12:51;;;;;;;26.30;16.40;;;21.50;64.50;;;;;;4980412;28;20050;-62
2023/09/13 08:15:20;;;;;;;25.13;17.90;;;21.50;64.60;;;;;;4982323;28;20058;-65
2023/09/13 08:17:49;;;;;;;26.35;18.05;;;21.50;64.60;;;;;;4982210;28;20077;-61
2023/09/13 08:20:16;;;;;;;28.50;18.15;;;21.50;64.70;;;;;;4981150;28;20057;-61
2023/09/13 08:22:43;;;;;;;23.58;16.92;;;21.50;64.80;;;;;;4981073;28;20050;-59
2023/09/13 08:25:10;;;;;;;26.70;16.75;;;21.50;64.90;;;;;;4981343;28;20057;-56
2023/09/13 08:27:38;;;;;;;24.77;16.80;;;21.40;64.80;;;;;;4978001;28;20590;-65
2023/09/13 08:30:07;;;;;;;23.63;16.83;;;21.50;65.00;;;;;;4981549;28;20058;-61
2023/09/13 08:32:37;;;;;;;23.15;15.77;;;21.50;65.30;;;;;;4981213;28;20503;-63
2023/09/13 08:35:05;;;;;;;32.45;18.70;;;21.50;65.60;;;;;;4981539;28;20054;-63
2023/09/13 08:37:32;;;;;;;23.92;14.93;;;21.50;65.20;;;;;;4978559;28;20058;-63
2023/09/13 08:39:59;;;;;;;21.10;14.50;;;21.50;65.40;;;;;;4981084;28;20069;-63
2023/09/13 08:42:29;;;;;;;22.13;14.88;;;21.60;65.70;;;;;;4979129;28;20046;-63
2023/09/13 08:44:58;;;;;;;25.00;16.85;;;21.60;65.90;;;;;;4981445;28;20383;-62
2023/09/13 08:47:29;;;;;;;20.20;15.23;;;21.70;65.30;;;;;;4981313;28;20058;-62
2023/09/13 08:49:59;;;;;;;28.10;14.85;;;21.70;65.10;;;;;;4980481;28;20046;-60
2023/09/13 08:52:28;;;;;;;22.88;16.17;;;21.70;65.30;;;;;;4980610;28;20054;-61
2023/09/13 08:54:56;;;;;;;29.13;17.10;;;21.70;64.80;;;;;;4981955;28;20058;-66
2023/09/13 08:57:25;;;;;;;23.38;16.55;;;21.80;64.20;;;;;;4978771;28;20046;-62
2023/09/13 08:59:52;;;;;;;27.70;16.85;;;21.80;64.20;;;;;;4980876;28;20422;-61
2023/09/13 09:02:22;;;;;;;23.60;16.48;;;21.80;63.80;;;;;;4984725;28;20540;-63
2023/09/13 09:04:51;;;;;;;24.98;15.98;;;21.80;64.00;;;;;;4986210;28;20116;-63
2023/09/13 09:07:21;;;;;;;23.73;15.77;;;21.80;64.20;;;;;;4986335;28;20421;-63
2023/09/13 09:09:49;;;;;;;21.13;15.02;;;21.80;64.40;;;;;;4986039;28;20073;-63
2023/09/13 09:12:17;;;;;;;19.30;13.55;;;21.80;64.60;;;;;;4984168;28;20050;-64
2023/09/13 09:14:47;;;;;;;23.65;14.90;;;21.80;64.60;;;;;;4983348;28;20058;-60
2023/09/13 09:17:19;;;;;;;18.02;14.52;;;21.80;64.70;;;;;;4985233;28;20058;-63
2023/09/13 09:19:46;;;;;;;22.40;16.30;;;21.80;64.50;;;;;;4983981;28;20069;-64
2023/09/13 09:22:14;;;;;;;25.45;15.98;;;21.90;64.50;;;;;;4984874;28;20054;-63
2023/09/13 09:24:42;;;;;;;22.95;14.77;;;21.90;64.30;;;;;;4985036;28;21164;-58
2023/09/13 09:27:10;;;;;;;20.10;13.70;;;22.00;63.90;;;;;;4984423;28;20054;-60
2023/09/13 09:29:40;;;;;;;23.02;13.57;;;22.00;63.70;;;;;;4985746;28;20050;-63
2023/09/13 09:32:08;;;;;;;21.40;14.88;;;22.10;64.00;;;;;;4982846;28;20407;-59
2023/09/13 09:34:39;;;;;;;21.73;14.82;;;22.10;63.90;;;;;;4984271;28;20062;-63
2023/09/13 09:37:08;;;;;;;23.45;16.23;;;22.20;63.50;;;;;;4983954;28;20059;-63
2023/09/13 09:39:38;;;;;;;23.75;15.73;;;22.20;64.40;;;;;;4983587;28;20061;-62
2023/09/13 09:42:07;;;;;;;20.70;13.68;;;22.30;63.70;;;;;;4984000;28;20054;-63
2023/09/13 09:44:35;;;;;;;23.55;14.88;;;22.30;63.60;;;;;;4984742;28;20138;-63
2023/09/13 09:47:02;;;;;;;20.98;14.35;;;22.40;63.20;;;;;;4985154;28;20388;-62
2023/09/13 09:49:29;;;;;;;22.92;14.63;;;22.40;62.80;;;;;;4984817;28;20050;-62
2023/09/13 09:51:57;;;;;;;21.10;13.05;;;22.40;62.60;;;;;;4980282;28;20057;-58
2023/09/13 09:54:25;;;;;;;22.67;14.45;;;22.50;62.80;;;;;;4981887;28;20058;-63
2023/09/13 09:56:53;;;;;;;20.80;13.10;;;22.50;62.30;;;;;;4982921;28;20056;-60
2023/09/13 09:59:21;;;;;;;26.42;14.73;;;22.60;62.40;;;;;;4984429;28;20054;-62
2023/09/13 10:01:57;;;;;;;20.67;14.05;;;22.60;61.40;;;;;;4982289;28;20054;-64
2023/09/13 10:04:24;;;;;;;18.60;12.82;;;22.70;61.60;;;;;;4982215;28;20058;-66
2023/09/13 10:06:59;;;;;;;24.42;15.05;;;22.60;61.60;;;;;;4981616;28;20061;-59
2023/09/13 10:09:38;;;;;;;23.92;13.38;;;22.70;61.30;;;;;;4984029;28;20058;-51
2023/09/13 10:12:07;;;;;;;21.58;13.65;;;22.70;62.00;;;;;;4980595;28;20077;-54
2023/09/13 10:14:35;;;;;;;16.90;11.68;;;22.70;62.00;;;;;;4983724;28;20050;-54
2023/09/13 10:17:04;;;;;;;19.65;12.63;;;22.70;61.70;;;;;;4982365;28;20069;-57
2023/09/13 10:19:32;;;;;;;18.17;11.57;;;22.80;60.90;;;;;;4983158;28;20062;-56
2023/09/13 10:22:00;;;;;;;16.75;11.00;;;22.80;60.20;;;;;;4980197;28;20065;-48
2023/09/13 10:24:48;;;;;;;18.60;12.40;;;22.80;60.00;;;;;;4980974;28;20565;-47
2023/09/13 10:27:18;;;;;;;16.90;11.85;;;22.80;59.60;;;;;;4977510;28;20061;-52
2023/09/13 10:29:56;;;;;;;19.00;11.40;;;22.80;59.80;;;;;;4981025;28;20054;-47
2023/09/13 10:32:27;;;;;;;15.68;10.70;;;22.80;60.10;;;;;;4979315;28;20066;-49
2023/09/13 10:34:58;;;;;;;17.77;12.95;;;22.90;60.40;;;;;;4981347;28;20422;-57
2023/09/13 10:37:33;;;;;;;18.05;12.00;;;22.90;60.00;;;;;;4979752;28;20065;-56
2023/09/13 10:40:10;;;;;;;17.25;11.70;;;22.90;59.30;;;;;;4979032;28;20069;-53
2023/09/13 10:42:40;;;;;;;16.98;12.02;;;22.90;59.60;;;;;;4981121;28;20054;-51
2023/09/13 10:45:14;;;;;;;18.48;12.10;;;22.90;59.00;;;;;;4978950;28;20061;-57
2023/09/13 10:47:41;;;;;;;;;;;22.90;58.70;;;;;;4981575;28;20057;-59
2023/09/13 10:50:09;;;;;;;21.05;11.52;;;23.00;59.20;;;;;;4980953;28;19930;-58
2023/09/13 10:52:38;;;;;;;21.85;11.57;;;23.00;59.00;;;;;;4983258;28;20065;-57
2023/09/13 10:55:07;;;;;;;15.95;10.38;;;23.00;58.90;;;;;;4983225;28;20054;-58
2023/09/13 10:57:35;;;;;;;13.05;9.70;;;22.90;59.00;;;;;;4980862;28;20068;-55
2023/09/13 11:00:07;;;;;;;17.00;10.13;;;22.90;59.50;;;;;;4981054;28;20054;-54
2023/09/13 11:02:37;;;;;;;16.20;11.00;;;23.00;59.50;;;;;;4980942;28;20069;-57
2023/09/13 11:05:06;;;;;;;12.35;9.05;;;23.00;59.40;;;;;;4980578;28;20053;-51
2023/09/13 11:07:38;;;;;;;12.25;8.77;;;23.00;59.40;;;;;;4980366;28;20066;-58
2023/09/13 11:10:06;;;;;;;15.15;9.55;;;23.10;59.70;;;;;;4975647;28;20062;-55
2023/09/13 11:12:36;;;;;;;11.57;8.95;;;23.20;59.00;;;;;;4978493;28;20054;-59
2023/09/13 11:15:13;;;;;;;13.70;8.35;;;23.20;59.00;;;;;;4979242;28;20058;-57
2023/09/13 11:17:43;;;;;;;12.00;7.90;;;23.30;58.40;;;;;;4979157;28;20053;-53
2023/09/13 11:20:30;;;;;;;12.10;8.18;;;23.30;58.60;;;;;;4976624;28;20069;-50
2023/09/13 11:23:01;;;;;;;14.05;8.88;;;23.30;58.00;;;;;;4979347;28;20414;-49
2023/09/13 11:25:34;;;;;;;11.82;8.02;;;23.40;57.50;;;;;;4983328;28;20062;-58
2023/09/13 11:28:04;;;;;;;11.30;8.40;;;23.40;57.90;;;;;;4982557;28;20517;-56
2023/09/13 11:30:48;;;;;;;10.13;7.82;;;23.40;58.20;;;;;;4980002;28;20061;-57
2023/09/13 11:36:54;;;;;;;11.90;9.50;;;23.50;57.40;;;;;;4978015;28;20034;-59
2023/09/13 11:39:22;;;;;;;10.73;8.05;;;23.50;57.40;;;;;;4981623;28;20054;-57
2023/09/13 11:41:51;;;;;;;13.27;8.88;;;23.50;57.50;;;;;;4978164;28;20061;-55
2023/09/13 11:44:21;;;;;;;11.35;7.63;;;23.50;57.20;;;;;;4981912;28;20062;-56
2023/09/13 11:46:49;;;;;;;11.50;7.38;;;23.60;57.50;;;;;;4981634;28;20050;-57
2023/09/13 11:49:21;;;;;;;10.95;7.47;;;23.60;57.70;;;;;;4982562;28;20396;-51
2023/09/13 11:51:54;;;;;;;9.23;6.47;;;23.60;57.90;;;;;;4977829;28;20058;-57
2023/09/13 11:54:22;;;;;;;14.60;8.10;;;23.60;57.50;;;;;;4981308;28;20521;-57
2023/09/13 11:56:51;;;;;;;9.20;6.10;;;23.70;56.60;;;;;;4977546;28;21005;-57
2023/09/13 11:59:23;;;;;;;9.38;6.00;;;23.70;56.20;;;;;;4981713;28;20061;-56
2023/09/13 12:01:52;;;;;;;8.30;5.53;;;23.80;56.90;;;;;;4981841;28;20050;-57
2023/09/13 12:04:22;;;;;;;11.10;6.90;;;23.80;56.10;;;;;;4980180;28;20418;-55
2023/09/13 12:06:54;;;;;;;9.98;5.68;;;23.80;55.90;;;;;;4979301;28;20051;-57
2023/09/13 12:09:22;;;;;;;9.75;5.95;;;23.80;56.20;;;;;;4977786;28;20058;-56
2023/09/13 12:11:51;;;;;;;13.73;5.70;;;23.80;55.50;;;;;;4981545;28;20057;-56
2023/09/13 12:14:19;;;;;;;12.10;6.13;;;23.80;55.70;;;;;;4980311;28;20065;-55
2023/09/13 12:16:49;;;;;;;8.95;6.07;;;23.80;55.60;;;;;;4979657;28;20058;-57
2023/09/13 12:19:17;;;;;;;11.43;6.20;;;23.80;55.70;;;;;;4982151;28;20062;-56
2023/09/13 12:21:45;;;;;;;8.90;6.32;;;23.80;56.10;;;;;;4976162;28;20616;-56
2023/09/13 12:24:19;;;;;;;10.10;6.10;;;23.70;56.00;;;;;;4980722;28;20069;-50
2023/09/13 12:26:46;;;;;;;;;;;23.70;56.60;;;;;;4983284;28;20054;-51
2023/09/13 12:29:15;;;;;;;10.75;7.68;;;23.80;56.70;;;;;;4979941;28;19925;-51
2023/09/13 12:31:42;;;;;;;12.23;7.60;;;23.80;56.10;;;;;;4982184;28;20058;-56
2023/09/13 12:34:10;;;;;;;11.40;7.05;;;23.80;55.90;;;;;;4981723;28;20505;-53
2023/09/13 12:36:38;;;;;;;11.10;6.15;;;23.80;56.70;;;;;;4976859;28;20052;-52
2023/09/13 12:39:15;;;;;;;9.57;6.47;;;23.80;56.70;;;;;;4978678;28;20054;-57
2023/09/13 12:41:42;;;;;;;9.40;6.50;;;23.90;56.70;;;;;;4981487;28;20058;-57
2023/09/13 12:44:11;;;;;;;10.77;6.32;;;23.90;56.60;;;;;;4978929;28;20057;-56
2023/09/13 12:46:40;;;;;;;9.40;5.45;;;24.00;56.60;;;;;;4980939;28;20501;-53
2023/09/13 12:49:07;;;;;;;10.45;6.55;;;24.00;56.60;;;;;;4980037;28;20711;-50